createdAt,value
2022-08-18T06:11:31.362Z,65.60
2022-08-18T06:16:45.242Z,63.63
2022-08-18T06:19:29.625Z,63.17
2022-08-18T06:22:09.231Z,61.22
2022-08-18T06:24:42.960Z,59.05
2022-08-18T06:27:19.362Z,55.65
2022-08-18T06:29:59.572Z,55.55
2022-08-18T06:32:47.667Z,56.22
2022-08-18T06:35:25.587Z,57.63
2022-08-18T12:33:12.791Z,20.92
2022-08-18T12:35:41.809Z,14.60
2022-08-18T12:38:13.725Z,13.35
2022-08-18T12:40:44.222Z,13.23
2022-08-18T12:44:18.399Z,11.80
2022-08-18T12:46:49.187Z,13.00
2022-08-18T12:49:19.406Z,13.27
2022-08-18T12:51:50.245Z,12.57
2022-08-18T12:54:20.167Z,11.73
2022-08-18T12:56:51.468Z,10.60
2022-08-18T13:00:55.566Z,10.02
2022-08-18T13:03:24.922Z,10.75
2022-08-18T13:05:55.954Z,10.27
2022-08-18T13:08:30.348Z,8.30
2022-08-18T13:11:15.082Z,8.65
2022-08-18T13:13:56.480Z,7.68
2022-08-18T13:18:49.079Z,6.85
2022-08-18T13:21:18.465Z,7.25
2022-08-18T13:23:46.893Z,7.53
2022-08-18T13:26:21.678Z,7.28
2022-08-18T13:28:57.005Z,7.00
2022-08-18T13:31:26.805Z,7.93
2022-08-18T13:33:59.419Z,6.00
2022-08-18T13:36:44.361Z,5.97
2022-08-18T13:39:15.368Z,5.22
2022-08-18T13:41:45.638Z,5.90
2022-08-18T13:44:18.480Z,5.80
2022-08-18T13:46:48.079Z,6.00
2022-08-18T13:49:23.831Z,5.53
2022-08-18T13:52:00.869Z,6.55
2022-08-18T13:54:35.444Z,6.93
2022-08-18T13:57:04.234Z,6.07
2022-08-18T13:59:34.138Z,6.20
2022-08-18T14:02:05.904Z,7.63
2022-08-18T14:04:38.781Z,6.65
2022-08-18T14:07:10.974Z,6.18
2022-08-18T14:09:40.376Z,6.40
2022-08-18T14:12:15.358Z,7.43
2022-08-18T14:14:44.198Z,5.95
2022-08-18T14:17:12.328Z,17.38
2022-08-18T14:19:58.850Z,5.95
2022-08-18T14:22:44.627Z,6.55
2022-08-18T14:25:30.058Z,5.90
2022-08-18T14:27:59.045Z,5.13
2022-08-18T14:30:32.225Z,4.72
2022-08-18T14:33:00.321Z,4.55
2022-08-18T14:35:33.979Z,5.05
2022-08-18T14:38:18.158Z,5.15
2022-08-18T14:40:47.302Z,5.47
2022-08-18T14:43:16.675Z,4.38
2022-08-18T14:45:48.928Z,3.85
2022-08-18T14:48:19.114Z,3.92
2022-08-18T14:50:50.536Z,3.78
2022-08-18T14:53:20.094Z,3.63
2022-08-18T14:55:52.155Z,4.28
2022-08-18T14:58:20.258Z,3.60
2022-08-18T15:00:53.416Z,3.60
2022-08-18T15:03:30.847Z,4.38
2022-08-18T15:06:04.749Z,3.80
2022-08-18T15:08:34.251Z,3.78
2022-08-18T15:11:06.048Z,3.90
2022-08-18T15:13:40.421Z,3.67
2022-08-18T15:16:13.642Z,4.15
2022-08-18T15:18:41.684Z,3.63
2022-08-18T15:21:35.584Z,4.30
2022-08-18T15:24:24.969Z,4.40
2022-08-18T15:26:57.752Z,3.30
2022-08-18T15:29:27.974Z,3.40
2022-08-18T15:32:02.115Z,3.55
2022-08-18T15:34:46.217Z,3.65
2022-08-18T15:37:19.578Z,4.20
2022-08-18T15:39:51.883Z,3.88
2022-08-18T15:42:24.649Z,3.35
2022-08-18T15:44:53.546Z,3.80
2022-08-18T15:47:22.058Z,3.95
2022-08-18T15:49:54.773Z,4.22
2022-08-18T15:52:24.516Z,3.40
2022-08-18T15:54:55.789Z,4.22
2022-08-18T15:57:39.051Z,3.38
2022-08-18T16:00:12.102Z,3.83
2022-08-18T16:02:40.688Z,3.50
2022-08-18T16:05:14.157Z,3.58
2022-08-18T16:07:45.976Z,3.33
2022-08-18T16:10:14.379Z,3.13
2022-08-18T16:12:46.299Z,2.75
2022-08-18T16:15:15.414Z,4.10
2022-08-18T16:17:47.764Z,3.60
2022-08-18T16:20:15.833Z,3.88
2022-08-18T16:22:45.076Z,3.50
2022-08-18T16:25:12.958Z,3.55
2022-08-18T16:27:42.560Z,3.70
2022-08-18T16:30:12.168Z,3.50
2022-08-18T16:32:39.991Z,3.30
2022-08-18T16:35:08.457Z,3.80
2022-08-18T16:37:36.202Z,3.92
2022-08-18T16:40:06.754Z,3.28
2022-08-18T16:42:34.590Z,3.75
2022-08-18T16:45:03.942Z,3.90
2022-08-18T16:47:33.558Z,3.35
2022-08-18T16:50:01.256Z,4.45
2022-08-18T16:52:41.969Z,3.35
2022-08-18T16:55:13.038Z,3.67
2022-08-18T16:58:00.020Z,4.00
2022-08-18T17:00:45.927Z,4.30
2022-08-18T17:03:41.222Z,3.90
2022-08-18T17:06:11.413Z,3.70
2022-08-18T17:08:40.359Z,4.10
2022-08-18T17:11:12.553Z,3.78
2022-08-18T17:13:41.179Z,3.90
2022-08-18T17:16:09.498Z,4.10
2022-08-18T17:18:38.167Z,3.58
2022-08-18T17:21:07.701Z,4.78
2022-08-18T17:23:38.991Z,3.30
2022-08-18T17:26:14.217Z,3.78
2022-08-18T17:28:50.440Z,3.33
2022-08-18T17:31:20.742Z,3.13
2022-08-18T17:33:48.955Z,3.38
2022-08-18T17:36:24.169Z,3.63
2022-08-18T17:38:57.294Z,3.00
2022-08-18T17:41:27.729Z,3.10
2022-08-18T17:43:57.098Z,3.03
2022-08-18T17:46:29.481Z,3.10
2022-08-18T17:49:01.923Z,3.38
2022-08-18T17:51:34.351Z,3.70
2022-08-18T17:54:13.051Z,3.17
2022-08-18T17:56:47.291Z,4.10
2022-08-18T17:59:50.800Z,3.55
2022-08-18T18:02:19.052Z,3.70
2022-08-18T18:04:57.100Z,3.55
2022-08-18T18:07:28.199Z,3.35
2022-08-18T18:10:00.509Z,3.47
2022-08-18T18:12:34.618Z,3.67
2022-08-18T18:15:04.732Z,3.47
2022-08-18T18:17:37.656Z,3.28
2022-08-18T18:20:16.338Z,3.83
2022-08-18T18:22:45.970Z,3.85
2022-08-18T18:25:30.279Z,3.75
2022-08-18T18:28:04.215Z,3.65
2022-08-18T18:30:33.931Z,3.47
2022-08-18T18:33:03.912Z,3.13
2022-08-18T18:35:34.200Z,3.22
2022-08-18T18:38:04.936Z,3.20
2022-08-18T18:40:37.171Z,3.70
2022-08-18T18:43:28.877Z,3.47
2022-08-18T18:46:09.886Z,3.30
2022-08-18T18:48:51.872Z,3.30
2022-08-18T18:51:33.621Z,3.30
2022-08-18T18:54:10.708Z,3.13
2022-08-18T18:56:45.639Z,3.60
2022-08-18T18:59:23.442Z,3.63
2022-08-18T19:02:01.546Z,3.63
2022-08-18T19:04:36.871Z,3.47
2022-08-18T19:07:20.969Z,3.33
2022-08-18T19:09:58.193Z,2.90
2022-08-18T19:12:30.686Z,3.15
2022-08-18T19:15:06.522Z,3.42
2022-08-18T19:17:42.517Z,3.75
2022-08-18T19:20:14.421Z,3.40
2022-08-18T19:22:47.450Z,3.80
2022-08-18T19:25:20.541Z,3.33
2022-08-18T19:27:53.152Z,3.70
2022-08-18T19:30:23.233Z,2.97
2022-08-18T19:32:54.536Z,3.72
2022-08-18T19:35:35.191Z,3.25
2022-08-18T19:38:15.497Z,3.35
2022-08-18T19:40:49.433Z,3.72
2022-08-18T19:43:27.531Z,3.53
2022-08-18T19:46:03.735Z,3.53
2022-08-18T19:48:39.442Z,3.50
2022-08-18T19:51:12.367Z,3.97
2022-08-18T19:53:55.167Z,3.35
2022-08-18T19:56:37.005Z,3.17
2022-08-18T19:59:35.137Z,3.15
2022-08-18T20:02:17.924Z,3.75
2022-08-18T20:05:03.814Z,3.75
2022-08-18T20:07:54.791Z,4.10
2022-08-18T20:10:36.999Z,4.05
2022-08-18T20:13:24.791Z,3.88
2022-08-18T20:16:11.862Z,4.07
2022-08-18T20:18:42.880Z,3.90
2022-08-18T20:21:39.873Z,3.70
2022-08-18T20:24:18.699Z,3.63
2022-08-18T20:26:50.335Z,3.70
2022-08-18T20:29:21.607Z,4.25
2022-08-18T20:31:59.942Z,3.90
2022-08-18T20:37:00.258Z,3.70
2022-08-18T20:39:35.518Z,3.58
2022-08-18T20:42:04.770Z,3.83
2022-08-18T20:44:58.518Z,3.67
2022-08-18T20:47:58.708Z,3.90
2022-08-18T20:50:52.039Z,4.03
2022-08-18T20:53:42.235Z,4.05
2022-08-18T20:56:32.572Z,4.38
2022-08-18T20:59:18.305Z,3.40
2022-08-18T21:01:58.501Z,3.80
2022-08-18T21:04:41.174Z,4.00
2022-08-18T21:07:19.497Z,4.18
2022-08-18T21:10:12.840Z,4.32
2022-08-18T21:12:52.608Z,3.90
2022-08-18T21:15:24.351Z,4.82
2022-08-18T21:18:02.051Z,5.55
2022-08-18T21:20:31.512Z,5.47
2022-08-18T21:23:07.693Z,4.93
2022-08-18T21:25:36.389Z,5.43
2022-08-18T21:28:07.110Z,4.68
2022-08-18T21:30:35.105Z,4.45
2022-08-18T21:33:20.843Z,5.45
2022-08-18T21:35:48.943Z,4.63
2022-08-18T21:38:26.901Z,3.90
2022-08-18T21:40:59.161Z,4.40
2022-08-18T21:43:42.362Z,4.80
2022-08-18T21:46:24.275Z,4.35
2022-08-18T21:48:54.794Z,4.72
2022-08-18T21:51:25.202Z,4.75
2022-08-18T21:53:55.311Z,6.43
2022-08-18T21:59:07.133Z,4.90
2022-08-18T22:01:37.651Z,5.70
2022-08-18T22:04:18.858Z,4.75
2022-08-18T22:06:52.469Z,5.70
2022-08-18T22:09:41.277Z,4.55
2022-08-18T22:12:42.001Z,4.45
2022-08-18T22:15:12.104Z,4.63
2022-08-18T22:17:51.718Z,5.13
2022-08-18T22:20:40.527Z,5.03
2022-08-18T22:23:44.155Z,4.63
2022-08-18T22:26:18.453Z,5.20
2022-08-18T22:29:03.873Z,5.63
2022-08-18T22:31:33.095Z,4.55
2022-08-18T22:34:04.586Z,4.50
2022-08-18T22:36:36.128Z,4.47
2022-08-18T22:39:05.214Z,5.03
2022-08-18T22:41:38.425Z,4.80
2022-08-18T22:44:06.933Z,4.97
2022-08-18T22:46:36.185Z,5.18
2022-08-18T22:49:04.449Z,4.82
2022-08-18T22:51:36.269Z,6.25
2022-08-18T22:54:06.401Z,6.93
2022-08-18T22:56:35.771Z,5.10
2022-08-18T22:59:13.819Z,7.57
2022-08-18T23:01:46.829Z,5.85
2022-08-18T23:04:16.938Z,5.28
2022-08-18T23:06:52.220Z,4.88
2022-08-18T23:09:22.444Z,4.82
2022-08-18T23:11:50.275Z,4.70
2022-08-18T23:16:47.998Z,4.32
2022-08-18T23:21:45.153Z,4.65
2022-08-18T23:24:15.312Z,4.55
2022-08-18T23:26:43.439Z,4.80
2022-08-18T23:29:12.443Z,3.78
2022-08-18T23:31:43.558Z,4.65
2022-08-18T23:34:13.163Z,4.07
2022-08-18T23:36:45.622Z,5.10
2022-08-18T23:39:14.594Z,4.65
2022-08-18T23:41:42.794Z,3.75
2022-08-18T23:44:11.425Z,4.22
2022-08-18T23:46:39.712Z,4.13
2022-08-18T23:49:10.811Z,3.88
2022-08-18T23:51:45.037Z,4.68
2022-08-18T23:54:18.846Z,4.68
2022-08-18T23:56:47.255Z,4.35
2022-08-18T23:59:16.666Z,4.03
